Time;durP1;ratioP1;P1;durP2;ratioP2;P2;SDS_P1;SDS_P2;PMS_P1;PMS_P2;Temp;Humidity;BMP_temperature;BMP_pressure;BME280_temperature;BME280_humidity;BME280_pressure;Samples;Min_cycle;Max_cycle;Signal;HPM_P1;HPM_P2
2023/11/06 00:00:24;;;;;;;2.95;2.25;;;;;;;5.59;100.00;96371.28;1225209;75;2919620;-69
2023/11/06 00:02:58;;;;;;;2.90;2.40;;;;;;;5.67;100.00;96375.81;1225035;75;2923763;-69
2023/11/06 00:05:33;;;;;;;2.65;2.05;;;;;;;5.61;100.00;96382.41;1224975;75;2918461;-69
2023/11/06 00:08:07;;;;;;;2.60;2.10;;;;;;;5.61;100.00;96385.88;1223702;75;2921047;-69
2023/11/06 00:10:39;;;;;;;2.20;1.75;;;;;;;5.33;100.00;96386.22;1224806;75;2920037;-69
2023/11/06 00:13:12;;;;;;;3.55;2.30;;;;;;;5.10;100.00;96390.59;1224473;75;2928334;-72
2023/11/06 00:15:44;;;;;;;2.75;2.05;;;;;;;5.22;100.00;96401.59;1223714;75;2919573;-71
2023/11/06 00:18:17;;;;;;;2.65;2.15;;;;;;;5.24;100.00;96410.00;1223866;75;2925337;-72
2023/11/06 00:20:53;;;;;;;2.15;1.65;;;;;;;5.38;100.00;96413.91;1188511;75;5698356;-70
2023/11/06 00:23:25;;;;;;;3.00;1.70;;;;;;;5.44;100.00;96418.22;1223726;75;2914639;-70
2023/11/06 00:25:58;;;;;;;2.15;1.40;;;;;;;5.29;100.00;96412.81;1224048;75;2932870;-69
2023/11/06 00:28:31;;;;;;;3.15;2.15;;;;;;;5.26;100.00;96421.88;1224772;75;2924303;-70
2023/11/06 00:31:04;;;;;;;3.45;2.35;;;;;;;5.00;100.00;96431.81;1224117;75;2921521;-70
2023/11/06 00:33:37;;;;;;;3.65;2.65;;;;;;;4.93;100.00;96438.38;1223618;75;2921807;-69
2023/11/06 00:36:20;;;;;;;3.40;2.55;;;;;;;5.25;100.00;96431.25;1225128;75;2923573;-70
2023/11/06 00:38:53;;;;;;;3.05;2.20;;;;;;;5.22;100.00;96442.28;1223141;75;2924998;-69
2023/11/06 00:41:26;;;;;;;3.35;2.25;;;;;;;5.29;100.00;96456.25;1223182;75;2931298;-69
2023/11/06 00:43:58;;;;;;;3.70;2.50;;;;;;;5.11;100.00;96459.88;1224971;75;2926166;-72
2023/11/06 00:46:31;;;;;;;2.90;2.15;;;;;;;5.19;100.00;96459.50;1223973;75;2921846;-70
2023/11/06 00:49:04;;;;;;;2.90;1.90;;;;;;;5.32;100.00;96465.41;1223276;75;2924089;-71
2023/11/06 00:51:39;;;;;;;1.85;1.60;;;;;;;5.33;100.00;96475.03;1223283;75;2924965;-70
2023/11/06 00:54:11;;;;;;;1.70;1.50;;;;;;;5.33;100.00;96477.75;1224158;75;2922206;-71
2023/11/06 00:56:44;;;;;;;2.30;1.90;;;;;;;4.96;100.00;96482.81;1224238;75;2922882;-71
2023/11/06 00:59:17;;;;;;;3.50;2.15;;;;;;;5.04;100.00;96495.50;1222907;75;2927680;-70
2023/11/06 01:01:50;;;;;;;2.45;1.80;;;;;;;5.02;100.00;96502.63;1225041;75;2917465;-71
2023/11/06 01:04:22;;;;;;;2.80;1.55;;;;;;;5.17;100.00;96505.34;1223933;75;2917801;-72
2023/11/06 01:06:59;;;;;;;1.40;1.30;;;;;;;5.04;100.00;96517.22;1220516;75;3096291;-69
2023/11/06 01:09:32;;;;;;;2.65;1.95;;;;;;;4.63;100.00;96514.25;1225268;75;2946986;-70
2023/11/06 01:12:05;;;;;;;2.80;2.20;;;;;;;4.86;100.00;96507.28;1222360;75;2925362;-71
2023/11/06 01:14:38;;;;;;;2.05;1.60;;;;;;;5.00;100.00;96521.31;1222770;75;2998231;-71
2023/11/06 01:17:12;;;;;;;1.70;1.40;;;;;;;4.93;100.00;96527.09;1225178;75;2916301;-70
2023/11/06 01:19:44;;;;;;;2.20;1.80;;;;;;;4.57;100.00;96528.91;1223960;75;2918426;-71
2023/11/06 01:22:20;;;;;;;2.25;1.80;;;;;;;4.61;100.00;96537.59;1224557;75;2923577;-69
2023/11/06 01:24:52;;;;;;;2.35;1.85;;;;;;;4.49;100.00;96534.66;1225018;75;2935470;-70
2023/11/06 01:27:25;;;;;;;2.05;1.85;;;;;;;4.64;100.00;96539.38;1222399;75;2926602;-72
2023/11/06 01:29:58;;;;;;;1.95;1.50;;;;;;;4.75;100.00;96533.44;1225559;75;2946265;-71
2023/11/06 01:32:30;;;;;;;2.00;1.60;;;;;;;4.74;100.00;96537.34;1225499;75;2922096;-70
2023/11/06 01:35:03;;;;;;;2.30;1.50;;;;;;;4.67;100.00;96530.34;1223865;75;2922818;-70
2023/11/06 01:37:39;;;;;;;1.50;1.20;;;;;;;4.76;100.00;96538.38;1224167;75;2927389;-70
2023/11/06 01:40:16;;;;;;;1.45;1.30;;;;;;;4.51;100.00;96539.63;1225273;75;2919285;-70
2023/11/06 01:42:48;;;;;;;1.95;1.45;;;;;;;4.53;100.00;96548.06;1224935;75;2923197;-69
2023/11/06 01:45:21;;;;;;;1.55;1.20;;;;;;;4.70;100.00;96553.81;1224997;75;2923610;-68
2023/11/06 01:47:54;;;;;;;1.20;1.10;;;;;;;4.69;100.00;96544.94;1223883;75;2920005;-72
2023/11/06 01:50:26;;;;;;;2.20;1.40;;;;;;;4.56;100.00;96560.66;1224748;75;2926047;-69
2023/11/06 01:53:04;;;;;;;1.30;1.20;;;;;;;4.67;100.00;96560.16;1225607;75;2918642;-70
2023/11/06 01:55:37;;;;;;;1.40;1.10;;;;;;;4.67;100.00;96560.91;1224667;75;2919043;-69
2023/11/06 01:58:11;;;;;;;1.20;1.00;;;;;;;4.64;100.00;96564.56;1225343;75;2918649;-69
2023/11/06 02:00:45;;;;;;;1.20;1.10;;;;;;;4.59;100.00;96561.72;1225510;75;2923718;-70
2023/11/06 02:03:18;;;;;;;1.25;1.15;;;;;;;4.68;100.00;96572.50;1221958;75;3030396;-69
2023/11/06 02:05:51;;;;;;;1.30;1.20;;;;;;;4.63;100.00;96570.41;1225698;75;2925179;-70
2023/11/06 02:08:26;;;;;;;1.80;1.10;;;;;;;4.63;100.00;96589.41;1211157;75;3922135;-69
2023/11/06 02:10:59;;;;;;;3.20;1.10;;;;;;;4.42;100.00;96591.91;1225288;75;2923701;-69
2023/11/06 02:13:32;;;;;;;1.25;1.10;;;;;;;4.42;100.00;96585.75;1225196;75;2927175;-70
2023/11/06 02:16:05;;;;;;;1.80;1.30;;;;;;;4.44;100.00;96594.19;1224234;75;2930205;-70
2023/11/06 02:18:38;;;;;;;1.95;1.75;;;;;;;4.35;100.00;96594.22;1225026;75;2930652;-70
2023/11/06 02:21:11;;;;;;;1.50;1.30;;;;;;;4.44;100.00;96596.88;1223988;75;3010773;-73
2023/11/06 02:23:46;;;;;;;1.80;1.40;;;;;;;4.36;100.00;96601.16;1224328;75;2926213;-70
2023/11/06 02:26:19;;;;;;;1.95;1.35;;;;;;;4.41;100.00;96601.25;1224487;75;2919530;-71
2023/11/06 02:28:55;;;;;;;1.30;1.10;;;;;;;4.53;100.00;96610.38;1221519;75;2922872;-69
2023/11/06 02:31:29;;;;;;;1.45;1.10;;;;;;;4.54;100.00;96601.03;1224752;75;2927217;-68
2023/11/06 02:34:02;;;;;;;1.25;1.15;;;;;;;4.52;100.00;96610.84;1225021;75;2965725;-70
2023/11/06 02:36:35;;;;;;;1.35;1.25;;;;;;;4.36;100.00;96606.56;1223699;75;2942740;-69
2023/11/06 02:39:11;;;;;;;1.45;1.10;;;;;;;4.54;100.00;96608.41;1225130;75;2914447;-71
2023/11/06 02:41:43;;;;;;;1.10;1.00;;;;;;;4.53;100.00;96604.97;1225015;75;2923581;-70
2023/11/06 02:44:16;;;;;;;1.10;1.00;;;;;;;4.36;100.00;96610.03;1225350;75;2923781;-69
2023/11/06 02:46:49;;;;;;;1.30;1.10;;;;;;;4.32;100.00;96614.09;1225043;75;2925210;-70
2023/11/06 02:49:22;;;;;;;0.95;0.90;;;;;;;4.41;100.00;96639.19;1224692;75;2920479;-70
2023/11/06 02:51:54;;;;;;;1.10;1.00;;;;;;;4.46;100.00;96643.25;1222586;75;3018841;-71
2023/11/06 02:54:30;;;;;;;1.20;1.10;;;;;;;4.31;100.00;96645.13;1223399;75;2915653;-69
2023/11/06 02:57:04;;;;;;;2.15;1.40;;;;;;;4.20;100.00;96651.03;1224899;75;2916277;-70
2023/11/06 02:59:36;;;;;;;1.70;1.40;;;;;;;4.33;100.00;96654.31;1223262;75;2924926;-70
2023/11/06 03:02:09;;;;;;;1.15;1.05;;;;;;;4.43;100.00;96660.44;1225124;75;2918108;-69
2023/11/06 03:04:42;;;;;;;1.15;1.05;;;;;;;4.31;100.00;96666.81;1225366;75;2921378;-69
2023/11/06 03:07:15;;;;;;;1.15;1.05;;;;;;;4.36;100.00;96675.06;1222545;75;2931950;-69
2023/11/06 03:09:50;;;;;;;1.25;1.00;;;;;;;4.34;100.00;96676.72;1224606;75;2918305;-70
2023/11/06 03:12:22;;;;;;;7.05;5.10;;;;;;;4.08;100.00;96681.78;1226016;75;2923617;-73
2023/11/06 03:14:55;;;;;;;9.45;6.90;;;;;;;3.92;100.00;96689.03;1223289;75;2925198;-73
2023/11/06 03:17:28;;;;;;;6.80;5.45;;;;;;;3.88;100.00;96690.41;1224365;75;2924027;-68
2023/11/06 03:20:00;;;;;;;7.40;5.15;;;;;;;3.90;100.00;96698.81;1225026;75;2920956;-70
2023/11/06 03:22:34;;;;;;;7.35;4.40;;;;;;;3.92;100.00;96708.00;1225623;75;2921087;-72
2023/11/06 03:25:11;;;;;;;4.85;3.80;;;;;;;4.16;100.00;96705.38;1224634;75;2923753;-69
2023/11/06 03:27:43;;;;;;;4.00;3.40;;;;;;;4.22;100.00;96716.34;1225013;75;2919126;-71
2023/11/06 03:30:17;;;;;;;3.30;2.80;;;;;;;4.08;100.00;96723.13;1223901;75;2923562;-71
2023/11/06 03:32:51;;;;;;;3.80;2.95;;;;;;;3.71;100.00;96733.28;1224975;75;2920751;-70
2023/11/06 03:35:24;;;;;;;4.35;3.35;;;;;;;3.59;100.00;96740.34;1224853;75;2927047;-70
2023/11/06 03:37:57;;;;;;;6.45;3.35;;;;;;;3.67;100.00;96733.41;1224600;75;2929897;-69
2023/11/06 03:40:32;;;;;;;4.35;3.05;;;;;;;3.92;100.00;96742.41;1225302;75;2918697;-71
2023/11/06 03:43:05;;;;;;;3.65;2.70;;;;;;;3.96;100.00;96748.44;1224415;75;2918650;-70
2023/11/06 03:45:37;;;;;;;2.10;1.90;;;;;;;3.99;100.00;96748.28;1224666;75;2920310;-69
2023/11/06 03:48:10;;;;;;;2.10;1.90;;;;;;;3.88;100.00;96752.66;1224539;75;2908162;-71
2023/11/06 03:50:43;;;;;;;2.30;1.80;;;;;;;4.03;100.00;96758.97;1224346;75;2924473;-70
2023/11/06 03:53:16;;;;;;;1.40;1.30;;;;;;;3.98;100.00;96759.56;1224170;75;2933055;-69
2023/11/06 03:55:51;;;;;;;1.50;1.40;;;;;;;4.03;100.00;96756.25;1224714;75;2917496;-70
2023/11/06 03:58:24;;;;;;;1.65;1.40;;;;;;;4.03;100.00;96753.53;1224031;75;2921960;-70
2023/11/06 04:00:57;;;;;;;1.50;1.20;;;;;;;4.04;100.00;96765.88;1223761;75;2921305;-71
2023/11/06 04:03:30;;;;;;;1.90;1.20;;;;;;;4.01;100.00;96766.78;1224563;75;2924700;-70
2023/11/06 04:06:03;;;;;;;1.35;1.05;;;;;;;3.95;100.00;96771.31;1225001;75;2927203;-71
2023/11/06 04:08:35;;;;;;;1.00;1.00;;;;;;;3.88;100.00;96774.31;1224426;75;2927759;-71
2023/11/06 04:11:11;;;;;;;1.40;1.30;;;;;;;3.78;100.00;96774.31;1211294;75;3898244;-69
2023/11/06 04:13:43;;;;;;;1.40;1.30;;;;;;;3.86;100.00;96782.88;1224084;75;2944421;-69
2023/11/06 04:16:16;;;;;;;2.65;1.00;;;;;;;3.89;100.00;96787.41;1224283;75;2926518;-69
2023/11/06 04:18:50;;;;;;;1.00;1.00;;;;;;;3.76;100.00;96775.97;1224841;75;2926942;-69
2023/11/06 04:21:22;;;;;;;1.30;1.20;;;;;;;3.84;100.00;96774.47;1224277;75;2921211;-69
2023/11/06 04:23:55;;;;;;;1.55;1.45;;;;;;;3.83;100.00;96767.56;1223965;75;2942504;-71
2023/11/06 04:26:31;;;;;;;1.30;1.10;;;;;;;3.82;100.00;96772.22;1222741;75;2920400;-70
2023/11/06 04:29:03;;;;;;;1.10;1.00;;;;;;;3.82;100.00;96774.94;1224282;75;2940832;-67
2023/11/06 04:31:36;;;;;;;1.10;1.00;;;;;;;3.81;100.00;96778.09;1224319;75;2924589;-71
2023/11/06 04:34:09;;;;;;;0.90;0.90;;;;;;;3.91;100.00;96786.94;1224463;75;2920360;-70
2023/11/06 04:36:42;;;;;;;1.20;1.10;;;;;;;3.87;100.00;96783.63;1224132;75;2925618;-70
2023/11/06 04:39:15;;;;;;;1.20;1.05;;;;;;;3.92;100.00;96781.09;1224060;75;2920676;-70
2023/11/06 04:41:51;;;;;;;1.20;1.10;;;;;;;3.73;100.00;96780.34;1224092;75;2925569;-71
2023/11/06 04:44:23;;;;;;;1.45;1.35;;;;;;;3.71;100.00;96782.00;1223874;75;2924029;-71
2023/11/06 04:46:56;;;;;;;1.55;1.35;;;;;;;3.81;100.00;96784.25;1224225;75;2934786;-69
2023/11/06 04:49:28;;;;;;;1.15;1.00;;;;;;;3.70;100.00;96780.47;1224293;75;2933396;-73
2023/11/06 04:52:02;;;;;;;1.70;1.45;;;;;;;3.84;100.00;96777.16;1223270;75;2985573;-69
2023/11/06 04:54:34;;;;;;;1.90;1.35;;;;;;;3.78;100.00;96781.69;1224300;75;2920876;-69
2023/11/06 04:57:10;;;;;;;1.50;1.40;;;;;;;3.87;100.00;96778.22;1224548;75;2920444;-69
2023/11/06 04:59:45;;;;;;;1.10;1.00;;;;;;;3.87;100.00;96772.81;1224544;75;2928625;-69
2023/11/06 05:02:18;;;;;;;1.20;1.10;;;;;;;3.79;100.00;96781.22;1223389;75;2925454;-71
2023/11/06 05:04:51;;;;;;;1.20;1.10;;;;;;;3.83;100.00;96795.38;1222914;75;2933447;-70
2023/11/06 05:07:23;;;;;;;1.65;1.10;;;;;;;3.74;100.00;96802.75;1223024;75;2936403;-74
2023/11/06 05:09:56;;;;;;;1.65;1.35;;;;;;;3.78;100.00;96804.09;1222905;75;2956322;-68
2023/11/06 05:12:31;;;;;;;1.40;1.10;;;;;;;3.81;100.00;96805.91;1224464;75;2923850;-71
2023/11/06 05:15:05;;;;;;;1.40;1.30;;;;;;;3.79;100.00;96813.72;1222802;75;2920651;-71
2023/11/06 05:17:38;;;;;;;2.35;1.45;;;;;;;3.76;100.00;96822.00;1218602;75;3092441;-71
2023/11/06 05:20:14;;;;;;;5.70;4.45;;;;;;;3.56;100.00;96825.88;1224961;75;2922657;-69
2023/11/06 05:22:47;;;;;;;4.35;3.10;;;;;;;3.50;100.00;96832.34;1224136;75;2925811;-69
2023/11/06 05:25:20;;;;;;;2.95;2.35;;;;;;;3.57;100.00;96837.47;1224314;75;2925381;-70
2023/11/06 05:27:55;;;;;;;2.70;2.45;;;;;;;3.65;100.00;96844.06;1224712;75;2922492;-70
2023/11/06 05:30:28;;;;;;;2.55;2.30;;;;;;;3.69;100.00;96847.41;1224411;75;2925283;-69
2023/11/06 05:33:01;;;;;;;3.00;2.50;;;;;;;3.66;100.00;96855.69;1224921;75;2917283;-70
2023/11/06 05:35:33;;;;;;;7.95;5.95;;;;;;;3.49;100.00;96850.53;1224922;75;2919146;-68
2023/11/06 05:38:06;;;;;;;6.55;4.80;;;;;;;3.49;100.00;96855.16;1223949;75;2932428;-70
2023/11/06 05:40:39;;;;;;;3.35;2.75;;;;;;;3.49;100.00;96857.88;1224872;75;2924546;-70
2023/11/06 05:43:14;;;;;;;3.10;2.35;;;;;;;3.59;100.00;96871.00;1224574;75;2920703;-70
2023/11/06 05:45:46;;;;;;;2.65;2.25;;;;;;;3.39;100.00;96865.22;1224401;75;2924730;-69
2023/11/06 05:48:19;;;;;;;4.20;2.45;;;;;;;3.03;100.00;96866.63;1224720;75;2920936;-69
2023/11/06 05:50:52;;;;;;;4.25;3.00;;;;;;;3.15;100.00;96873.88;1223753;75;2923090;-70
2023/11/06 05:53:25;;;;;;;3.05;2.45;;;;;;;3.44;100.00;96875.47;1224177;75;2926802;-69
2023/11/06 05:55:58;;;;;;;2.90;2.60;;;;;;;3.32;100.00;96881.72;1224503;75;2918244;-70
2023/11/06 05:58:34;;;;;;;3.50;2.80;;;;;;;3.30;100.00;96881.44;1224798;75;2929182;-69
2023/11/06 06:01:07;;;;;;;5.25;4.00;;;;;;;3.43;100.00;96879.38;1224119;75;2924887;-68
2023/11/06 06:03:42;;;;;;;4.50;3.80;;;;;;;3.50;100.00;96878.34;1224285;75;2921396;-69
2023/11/06 06:06:16;;;;;;;3.65;3.00;;;;;;;3.50;100.00;96887.19;1224073;75;2922454;-69
2023/11/06 06:08:49;;;;;;;3.15;2.85;;;;;;;3.56;100.00;96900.88;1223856;75;2923770;-69
2023/11/06 06:11:23;;;;;;;2.60;2.40;;;;;;;3.51;100.00;96906.88;1224209;75;2922522;-68
2023/11/06 06:13:58;;;;;;;2.85;2.05;;;;;;;3.61;100.00;96903.03;1223346;75;2924600;-69
2023/11/06 06:16:31;;;;;;;2.75;2.40;;;;;;;3.49;100.00;96910.06;1222887;75;2924192;-70
2023/11/06 06:19:05;;;;;;;4.20;3.20;;;;;;;3.46;100.00;96924.47;1223904;75;2925093;-70
2023/11/06 06:21:40;;;;;;;4.45;3.05;;;;;;;3.31;100.00;96945.16;1223661;75;2932736;-68
2023/11/06 06:24:15;;;;;;;4.20;3.30;;;;;;;3.40;100.00;96964.88;1224249;75;2923200;-70
2023/11/06 06:26:47;;;;;;;5.00;3.85;;;;;;;3.61;100.00;96957.91;1224586;75;2927206;-70
2023/11/06 06:29:22;;;;;;;4.95;3.70;;;;;;;3.68;100.00;96959.59;1224391;75;2924428;-71
2023/11/06 06:31:55;;;;;;;5.85;4.25;;;;;;;3.73;100.00;96964.41;1223422;75;2927079;-70
2023/11/06 06:34:28;;;;;;;5.00;3.30;;;;;;;4.97;100.00;96965.09;1225032;75;2929750;-70
2023/11/06 06:37:00;;;;;;;4.80;3.50;;;;;;;6.63;100.00;96967.03;1225256;75;2924803;-68
2023/11/06 06:39:33;;;;;;;4.55;2.70;;;;;;;8.65;100.00;96972.06;1223963;75;2926819;-70
2023/11/06 06:42:06;;;;;;;8.50;4.00;;;;;;;9.19;100.00;96963.44;1222678;75;2928728;-69
2023/11/06 06:44:41;;;;;;;3.60;2.75;;;;;;;11.03;87.27;96964.91;1225685;75;2920791;-70
2023/11/06 06:47:14;;;;;;;3.60;2.90;;;;;;;11.92;78.91;96973.66;1223199;75;2931050;-68
2023/11/06 06:49:47;;;;;;;3.75;3.40;;;;;;;11.87;75.51;96977.16;1225095;75;2918150;-68
2023/11/06 06:52:19;;;;;;;3.90;3.30;;;;;;;13.85;68.21;96972.16;1225513;75;2922734;-71
2023/11/06 06:54:52;;;;;;;4.75;3.50;;;;;;;12.86;68.67;96976.59;1225226;75;2922971;-70
2023/11/06 06:57:25;;;;;;;5.85;4.05;;;;;;;14.98;63.50;96968.88;1224061;75;2926591;-71
2023/11/06 07:00:00;;;;;;;4.15;3.40;;;;;;;16.31;58.62;96969.25;1223636;75;2923846;-70
2023/11/06 07:02:32;;;;;;;4.00;2.85;;;;;;;17.57;55.94;96969.56;1224225;75;2924552;-71
2023/11/06 07:05:09;;;;;;;3.40;3.05;;;;;;;18.85;56.24;96968.75;1222210;75;2926505;-70
2023/11/06 07:07:41;;;;;;;3.95;2.65;;;;;;;19.70;49.76;96962.13;1223852;75;2923626;-72
2023/11/06 07:10:14;;;;;;;4.40;2.80;;;;;;;20.13;48.68;96976.34;1223286;75;2926154;-70
2023/11/06 07:12:47;;;;;;;3.95;2.85;;;;;;;18.97;52.64;96974.72;1224692;75;2925102;-71
2023/11/06 07:15:22;;;;;;;3.90;3.00;;;;;;;18.43;54.78;96980.00;1224408;75;2919355;-72
2023/11/06 07:17:56;;;;;;;5.45;3.70;;;;;;;20.51;49.24;96983.88;1223632;75;2925461;-70
2023/11/06 07:20:29;;;;;;;4.30;2.70;;;;;;;19.20;49.70;96989.41;1223774;75;2918165;-70
2023/11/06 07:23:04;;;;;;;3.70;2.70;;;;;;;18.68;50.13;97008.78;1224197;75;2916024;-71
2023/11/06 07:25:36;;;;;;;5.90;4.10;;;;;;;17.71;51.87;97014.53;1221456;75;2933339;-69
2023/11/06 07:28:10;;;;;;;6.55;4.30;;;;;;;20.00;49.22;97007.84;1224151;75;2922025;-70
2023/11/06 07:30:45;;;;;;;5.00;3.25;;;;;;;22.50;43.91;97007.00;1223903;75;2928248;-70
2023/11/06 07:33:18;;;;;;;4.45;2.75;;;;;;;24.14;40.51;96998.13;1224861;75;2932230;-70
2023/11/06 07:35:51;;;;;;;3.45;2.20;;;;;;;25.23;40.08;96989.97;1224044;75;2927327;-71
2023/11/06 07:38:24;;;;;;;3.70;2.10;;;;;;;23.47;40.60;96996.53;1224117;75;2931030;-73
2023/11/06 07:40:56;;;;;;;2.55;1.95;;;;;;;23.42;41.38;97002.41;1223749;75;2924603;-71
2023/11/06 07:43:29;;;;;;;4.20;2.85;;;;;;;20.35;45.94;97008.22;1225015;75;2921615;-73
2023/11/06 07:46:04;;;;;;;4.80;3.20;;;;;;;20.43;45.58;97012.44;1223037;75;2980331;-73
2023/11/06 07:48:37;;;;;;;5.95;4.10;;;;;;;18.51;49.87;97016.81;1224344;75;2927703;-71
2023/11/06 07:51:10;;;;;;;8.05;5.80;;;;;;;17.75;52.60;97020.50;1224082;75;2918865;-71
2023/11/06 07:53:42;;;;;;;6.00;4.50;;;;;;;16.46;54.93;97023.97;1224815;75;2921176;-71
2023/11/06 07:56:17;;;;;;;4.80;3.90;;;;;;;15.92;56.52;97025.94;1222802;75;2927030;-71
2023/11/06 07:58:50;;;;;;;5.50;3.85;;;;;;;15.26;57.62;97031.91;1224583;75;2926694;-71
2023/11/06 08:01:26;;;;;;;4.90;3.15;;;;;;;16.53;55.97;97044.69;1223899;75;2927709;-73
2023/11/06 08:03:58;;;;;;;5.05;3.55;;;;;;;15.94;57.14;97039.91;1224418;75;2924100;-71
2023/11/06 08:06:31;;;;;;;6.95;3.35;;;;;;;14.90;59.07;97037.63;1223951;75;2923665;-72
2023/11/06 08:09:05;;;;;;;4.00;3.10;;;;;;;17.42;55.44;97038.63;1223011;75;2927506;-71
2023/11/06 08:11:37;;;;;;;4.50;4.05;;;;;;;17.85;55.18;97037.41;1224534;75;2923998;-73
2023/11/06 08:14:10;;;;;;;4.60;4.05;;;;;;;17.88;57.06;97034.28;1225515;75;2922316;-72
2023/11/06 08:16:45;;;;;;;5.15;3.85;;;;;;;16.24;56.35;97027.16;1222534;75;2931965;-70
2023/11/06 08:19:18;;;;;;;5.15;3.50;;;;;;;16.01;58.54;97032.28;1224694;75;2923957;-72
2023/11/06 08:21:50;;;;;;;4.10;3.55;;;;;;;17.83;55.11;97034.44;1224016;75;2921245;-73
2023/11/06 08:24:23;;;;;;;3.40;2.90;;;;;;;18.62;52.99;97038.69;1224040;75;2921293;-73
2023/11/06 08:26:56;;;;;;;6.20;3.00;;;;;;;18.70;52.92;97031.16;1224095;75;2922535;-72
2023/11/06 08:29:29;;;;;;;5.70;3.30;;;;;;;17.82;53.53;97028.16;1225133;75;2925923;-71
2023/11/06 08:32:05;;;;;;;3.20;2.65;;;;;;;17.24;55.95;97037.50;1224423;75;2921482;-71
2023/11/06 08:34:37;;;;;;;3.00;2.20;;;;;;;18.02;54.86;97031.44;1223824;75;2926426;-71
2023/11/06 08:37:11;;;;;;;3.55;2.15;;;;;;;17.76;54.30;97038.56;1224693;75;2941988;-70
2023/11/06 08:39:45;;;;;;;3.55;2.40;;;;;;;16.87;57.15;97044.06;1224466;75;2926279;-70
2023/11/06 08:42:19;;;;;;;3.35;2.40;;;;;;;16.02;60.19;97028.25;1224402;75;2924937;-72
2023/11/06 08:44:52;;;;;;;4.25;2.70;;;;;;;16.39;59.43;97027.34;1223500;75;2931470;-72
2023/11/06 08:47:27;;;;;;;2.85;1.80;;;;;;;16.88;58.71;97035.22;1223681;75;2923835;-72
2023/11/06 08:50:00;;;;;;;2.20;1.70;;;;;;;16.66;58.96;97033.63;1224584;75;2919340;-72
2023/11/06 08:52:34;;;;;;;2.15;1.55;;;;;;;17.80;59.48;97035.50;1223197;75;2923793;-69
2023/11/06 08:55:07;;;;;;;3.25;1.90;;;;;;;17.27;60.39;97041.19;1223761;75;2928488;-72
2023/11/06 08:57:40;;;;;;;3.85;2.60;;;;;;;16.77;60.60;97038.94;1224389;75;2923943;-71
2023/11/06 09:00:15;;;;;;;4.80;2.25;;;;;;;16.98;59.06;97035.53;1224076;75;2923236;-70
2023/11/06 09:02:51;;;;;;;4.50;2.35;;;;;;;17.79;59.63;97036.75;1225154;75;2919494;-71
2023/11/06 09:05:24;;;;;;;1.70;1.30;;;;;;;18.31;57.74;97035.00;1221867;75;2955231;-70
2023/11/06 09:07:56;;;;;;;3.30;2.10;;;;;;;16.83;57.47;97039.56;1223014;75;2936134;-71
2023/11/06 09:10:29;;;;;;;5.05;1.75;;;;;;;17.66;55.87;97038.31;1223729;75;2923250;-73
2023/11/06 09:13:02;;;;;;;4.35;1.60;;;;;;;16.48;58.35;97045.53;1223664;75;2932692;-71
2023/11/06 09:15:40;;;;;;;3.15;1.50;;;;;;;15.09;61.76;97036.91;1222538;75;2926991;-70
2023/11/06 09:18:19;;;;;;;2.30;1.50;;;;;;;17.94;57.98;97045.22;1224386;75;2924514;-72
2023/11/06 09:20:51;;;;;;;3.00;1.95;;;;;;;18.34;58.56;97047.00;1224494;75;2924820;-72
2023/11/06 09:23:24;;;;;;;6.85;2.10;;;;;;;18.00;56.40;97045.81;1223593;75;2927716;-73
2023/11/06 09:25:57;;;;;;;2.30;1.70;;;;;;;18.46;55.83;97056.50;1222818;75;2932699;-73
2023/11/06 09:28:30;;;;;;;4.00;2.20;;;;;;;17.14;58.10;97061.34;1224823;75;2928476;-68
2023/11/06 09:31:03;;;;;;;3.45;2.00;;;;;;;17.71;57.55;97058.84;1224436;75;2924776;-73
2023/11/06 09:33:39;;;;;;;3.85;1.80;;;;;;;18.07;56.51;97067.31;1224976;75;2920000;-72
2023/11/06 09:36:13;;;;;;;3.95;2.40;;;;;;;17.57;58.65;97074.00;1223452;75;2921139;-72
2023/11/06 09:38:45;;;;;;;4.85;2.40;;;;;;;17.32;58.29;97076.28;1223681;75;2929718;-71
2023/11/06 09:41:18;;;;;;;2.70;1.95;;;;;;;17.86;57.16;97075.59;1224581;75;2922541;-72
2023/11/06 09:43:51;;;;;;;5.35;2.60;;;;;;;17.34;59.43;97077.28;1224132;75;2941001;-71
2023/11/06 09:46:24;;;;;;;3.55;2.85;;;;;;;17.38;59.06;97063.84;1224508;75;2926212;-72
2023/11/06 09:49:16;;;;;;;6.50;3.70;;;;;;;18.68;56.92;97067.00;1225200;75;2906396;-68
2023/11/06 09:51:54;;;;;;;3.50;2.60;;;;;;;18.46;56.69;97068.34;1225824;75;2919555;-73
2023/11/06 09:54:27;;;;;;;8.00;4.00;;;;;;;18.93;55.22;97069.41;1224673;75;2938642;-69
2023/11/06 09:57:00;;;;;;;6.35;4.00;;;;;;;19.18;54.61;97066.16;1225803;75;2918137;-69
2023/11/06 09:59:32;;;;;;;6.95;2.80;;;;;;;18.73;55.53;97060.56;1225316;75;2922003;-73
2023/11/06 10:02:05;;;;;;;4.55;2.50;;;;;;;19.32;54.51;97064.75;1224113;75;2922041;-70
2023/11/06 10:04:40;;;;;;;5.25;2.65;;;;;;;17.48;56.25;97066.91;1225595;75;2919189;-73
2023/11/06 10:07:13;;;;;;;5.65;2.55;;;;;;;17.87;57.49;97065.28;1223046;75;2922935;-74
2023/11/06 10:09:46;;;;;;;3.30;1.90;;;;;;;18.83;56.51;97057.31;1223518;75;2980435;-71
2023/11/06 10:12:20;;;;;;;3.40;2.00;;;;;;;19.14;53.79;97056.16;1225068;75;2931820;-72
2023/11/06 10:14:53;;;;;;;4.20;1.80;;;;;;;19.47;52.64;97058.50;1222917;75;2924358;-70
2023/11/06 10:17:27;;;;;;;3.10;1.55;;;;;;;19.50;50.79;97041.47;1224551;75;2924942;-72
2023/11/06 10:20:14;;;;;;;2.20;1.35;;;;;;;18.38;52.84;97056.47;1225112;75;2917154;-71
2023/11/06 10:23:04;;;;;;;2.45;1.40;;;;;;;18.62;53.74;97041.47;1225179;75;2920371;-71
2023/11/06 10:25:37;;;;;;;1.95;1.15;;;;;;;20.02;53.22;97046.22;1224611;75;2925358;-71
2023/11/06 10:28:21;;;;;;;2.35;1.50;;;;;;;18.55;52.75;97047.72;1225887;75;2920139;-72
2023/11/06 10:30:55;;;;;;;3.90;1.50;;;;;;;20.19;51.00;97041.56;1224233;75;2921131;-70
2023/11/06 10:33:30;;;;;;;2.85;1.50;;;;;;;20.19;50.98;97038.78;1225335;75;2917613;-70
2023/11/06 10:36:17;;;;;;;1.45;1.00;;;;;;;20.02;51.96;97041.38;1222963;75;2925277;-71
2023/11/06 10:38:49;;;;;;;3.15;1.20;;;;;;;20.37;50.55;97041.72;1225202;75;2919499;-71
2023/11/06 10:41:27;;;;;;;2.45;1.50;;;;;;;19.96;51.75;97041.56;1206901;75;4112166;-71
2023/11/06 10:44:02;;;;;;;2.90;1.20;;;;;;;20.59;50.22;97041.00;1225681;75;2916680;-74
2023/11/06 10:46:37;;;;;;;2.20;1.40;;;;;;;19.10;53.54;97039.13;1222182;75;2935489;-71
2023/11/06 10:49:16;;;;;;;4.65;1.80;;;;;;;18.89;55.16;97042.00;1225013;75;2921907;-72
2023/11/06 10:51:56;;;;;;;3.10;1.75;;;;;;;20.42;53.22;97041.56;1225513;75;2934823;-72
2023/11/06 10:54:30;;;;;;;2.45;1.50;;;;;;;19.91;52.57;97034.13;1223411;75;2919771;-71
2023/11/06 10:57:04;;;;;;;2.30;1.05;;;;;;;20.16;52.08;97028.78;1224473;75;2923047;-71
2023/11/06 10:59:37;;;;;;;2.40;1.35;;;;;;;20.99;50.97;97029.19;1224093;75;2929508;-71
2023/11/06 11:02:12;;;;;;;1.90;1.10;;;;;;;20.37;51.79;97025.03;1224998;75;2925047;-72
2023/11/06 11:04:47;;;;;;;1.45;0.95;;;;;;;19.99;52.32;97018.22;1224043;75;2921583;-73
2023/11/06 11:07:23;;;;;;;2.10;1.20;;;;;;;19.28;53.47;97017.91;1225037;75;2925060;-71
2023/11/06 11:09:56;;;;;;;1.20;0.90;;;;;;;21.43;51.11;97025.28;1224095;75;2927024;-71
2023/11/06 11:12:30;;;;;;;1.90;1.20;;;;;;;19.37;54.27;97022.19;1225238;75;2922173;-74
2023/11/06 11:15:04;;;;;;;2.15;1.00;;;;;;;20.28;53.21;97023.59;1224564;75;2925360;-71
2023/11/06 11:17:39;;;;;;;2.05;1.65;;;;;;;19.64;54.29;97028.16;1223855;75;2922067;-71
2023/11/06 11:20:13;;;;;;;2.05;1.50;;;;;;;20.29;54.34;97022.28;1225379;75;2930027;-72
2023/11/06 11:23:10;;;;;;;4.75;1.30;;;;;;;21.21;54.35;97024.84;1224285;75;2918610;-73
2023/11/06 11:26:00;;;;;;;3.75;1.05;;;;;;;20.27;52.99;97024.88;1224970;75;2923332;-71
2023/11/06 11:28:52;;;;;;;3.20;1.55;;;;;;;20.51;53.19;97026.31;1224516;75;2927171;-72
2023/11/06 11:31:39;;;;;;;2.00;1.10;;;;;;;20.27;52.96;97029.69;1221434;75;2923792;-72
2023/11/06 11:34:29;;;;;;;1.75;1.00;;;;;;;21.52;50.66;97023.94;1223807;75;2922370;-70
2023/11/06 11:37:02;;;;;;;1.90;0.80;;;;;;;21.14;51.80;97025.63;1223660;75;2925225;-71
2023/11/06 11:39:55;;;;;;;2.05;0.90;;;;;;;20.96;51.86;97029.56;1224124;75;2922846;-71
2023/11/06 11:42:28;;;;;;;1.80;1.00;;;;;;;20.04;53.17;97029.72;1223350;75;2922826;-73
2023/11/06 11:45:03;;;;;;;1.30;0.80;;;;;;;21.49;51.97;97037.69;1224788;75;2924765;-72
2023/11/06 11:47:55;;;;;;;1.85;0.90;;;;;;;21.81;50.47;97038.97;1223568;75;2923207;-73